Time;durP1;ratioP1;P1;durP2;ratioP2;P2;SDS_P1;SDS_P2;PMS_P1;PMS_P2;Temp;Humidity;BMP_temperature;BMP_pressure;BME280_temperature;BME280_humidity;BME280_pressure;Samples;Min_cycle;Max_cycle;Signal;HPM_P1;HPM_P2
2022/09/07 00:00:49;;;;;;;0.60;0.60;;;18.90;73.40;;;;;;5130280;28;20036;-74
2022/09/07 00:03:15;;;;;;;0.70;0.70;;;18.80;73.50;;;;;;5124472;28;20052;-76
2022/09/07 00:05:42;;;;;;;1.27;0.90;;;18.80;73.60;;;;;;5118060;28;20051;-76
2022/09/07 00:08:08;;;;;;;0.52;0.40;;;18.70;73.80;;;;;;5117990;28;20139;-76
2022/09/07 00:10:33;;;;;;;0.40;0.40;;;18.60;74.10;;;;;;5114255;28;20626;-75
2022/09/07 00:12:59;;;;;;;0.77;0.70;;;18.50;74.20;;;;;;5130039;28;20040;-75
2022/09/07 00:15:25;;;;;;;0.80;0.77;;;18.50;74.20;;;;;;5116630;28;20058;-74
2022/09/07 00:17:51;;;;;;;0.50;0.47;;;18.50;74.30;;;;;;5114509;28;20047;-74
2022/09/07 00:20:17;;;;;;;0.98;0.70;;;18.40;74.50;;;;;;5114247;28;20118;-74
2022/09/07 00:22:44;;;;;;;0.90;0.57;;;18.30;74.60;;;;;;5096486;28;20081;-74
2022/09/07 00:25:11;;;;;;;0.40;0.40;;;18.30;74.80;;;;;;5097294;28;20042;-75
2022/09/07 00:27:37;;;;;;;0.43;0.43;;;18.20;74.70;;;;;;5096435;28;20369;-74
2022/09/07 00:30:05;;;;;;;0.65;0.40;;;18.20;74.70;;;;;;5114697;28;20035;-75
2022/09/07 00:32:31;;;;;;;0.57;0.52;;;18.30;74.80;;;;;;5114630;28;20031;-75
2022/09/07 00:34:56;;;;;;;0.63;0.50;;;18.20;74.70;;;;;;5096336;28;20042;-74
2022/09/07 00:37:22;;;;;;;0.45;0.40;;;18.20;74.70;;;;;;5114692;28;20131;-74
2022/09/07 00:39:48;;;;;;;0.75;0.30;;;18.20;74.90;;;;;;5114692;28;20047;-75
2022/09/07 00:42:18;;;;;;;0.50;0.50;;;18.20;75.10;;;;;;5114471;28;20413;-75
2022/09/07 00:45:06;;;;;;;0.50;0.50;;;18.10;75.10;;;;;;5114536;28;20058;-74
2022/09/07 00:47:50;;;;;;;0.63;0.40;;;18.20;75.30;;;;;;5114433;28;20569;-74
2022/09/07 00:50:24;;;;;;;0.40;0.40;;;18.10;75.10;;;;;;5113579;28;20052;-75
2022/09/07 00:52:56;;;;;;;0.52;0.47;;;18.10;75.20;;;;;;5079498;28;20042;-75
2022/09/07 00:55:22;;;;;;;0.57;0.50;;;18.10;75.30;;;;;;5114537;28;20075;-75
2022/09/07 00:57:53;;;;;;;0.50;0.50;;;18.10;75.30;;;;;;5114643;28;20043;-74
2022/09/07 01:00:20;;;;;;;0.43;0.40;;;18.10;75.40;;;;;;5114201;28;20122;-75
2022/09/07 01:02:48;;;;;;;0.38;0.30;;;18.10;75.50;;;;;;5114091;28;20126;-75
2022/09/07 01:05:31;;;;;;;0.40;0.40;;;18.00;75.50;;;;;;5114094;28;20053;-75
2022/09/07 01:07:57;;;;;;;0.40;0.40;;;18.00;75.50;;;;;;5113729;28;20039;-74
2022/09/07 01:10:29;;;;;;;0.28;0.28;;;18.10;75.60;;;;;;5095787;28;20153;-74
2022/09/07 01:12:55;;;;;;;0.30;0.30;;;18.00;75.70;;;;;;5094092;28;20544;-75
2022/09/07 01:15:26;;;;;;;0.38;0.35;;;18.00;75.80;;;;;;5095608;28;20052;-75
2022/09/07 01:18:26;;;;;;;0.40;0.40;;;18.00;75.80;;;;;;5113744;28;20067;-75
2022/09/07 01:21:16;;;;;;;0.47;0.40;;;18.00;76.00;;;;;;5100924;28;20489;-75
2022/09/07 01:24:12;;;;;;;0.47;0.47;;;17.90;75.90;;;;;;5112678;28;20101;-74
2022/09/07 01:27:18;;;;;;;0.40;0.40;;;17.90;76.00;;;;;;5113517;28;20093;-75
2022/09/07 01:29:57;;;;;;;0.30;0.30;;;17.80;76.10;;;;;;5112268;28;20054;-75
2022/09/07 01:32:37;;;;;;;0.90;0.50;;;17.80;76.10;;;;;;5112726;28;20396;-75
2022/09/07 01:35:10;;;;;;;0.30;0.30;;;17.80;76.10;;;;;;5097015;28;20050;-74
2022/09/07 01:37:45;;;;;;;0.30;0.30;;;17.80;76.20;;;;;;5095375;28;20401;-74
2022/09/07 01:40:27;;;;;;;0.43;0.40;;;17.80;76.30;;;;;;5112130;28;20071;-74
2022/09/07 01:42:59;;;;;;;0.40;0.40;;;17.70;76.30;;;;;;5113603;28;20122;-75
2022/09/07 01:45:28;;;;;;;0.47;0.40;;;17.90;77.10;;;;;;5113182;28;20043;-75
2022/09/07 01:47:58;;;;;;;0.57;0.50;;;17.70;76.40;;;;;;5113045;28;20100;-74
2022/09/07 01:50:32;;;;;;;1.10;0.33;;;17.70;76.50;;;;;;5095767;28;20036;-75
2022/09/07 01:53:05;;;;;;;0.30;0.30;;;17.70;76.60;;;;;;5112067;28;20042;-75
2022/09/07 01:55:35;;;;;;;0.20;0.20;;;17.70;76.70;;;;;;5113152;28;20044;-75
2022/09/07 01:58:11;;;;;;;0.30;0.30;;;17.70;76.70;;;;;;5112418;28;20032;-75
2022/09/07 02:00:42;;;;;;;0.25;0.25;;;17.70;76.70;;;;;;5112859;28;20047;-75
2022/09/07 02:03:23;;;;;;;0.30;0.30;;;17.70;76.70;;;;;;5113480;28;20050;-75
2022/09/07 02:05:57;;;;;;;0.63;0.35;;;17.60;76.80;;;;;;5113065;28;20130;-75
2022/09/07 02:08:32;;;;;;;0.25;0.25;;;17.80;76.90;;;;;;5112887;28;20132;-75
2022/09/07 02:11:18;;;;;;;0.25;0.22;;;17.60;76.90;;;;;;5094990;28;20105;-75
2022/09/07 02:14:05;;;;;;;0.20;0.20;;;17.60;77.00;;;;;;5113426;28;20040;-75
2022/09/07 02:16:35;;;;;;;0.30;0.30;;;17.60;77.00;;;;;;5112764;28;20406;-75
2022/09/07 02:19:07;;;;;;;0.32;0.32;;;17.60;77.10;;;;;;5113422;28;20046;-75
2022/09/07 02:21:38;;;;;;;0.50;0.35;;;17.60;77.20;;;;;;5112733;28;20089;-75
2022/09/07 02:24:12;;;;;;;0.30;0.30;;;17.70;77.30;;;;;;5094731;28;20386;-75
2022/09/07 02:26:39;;;;;;;0.43;0.30;;;17.60;77.30;;;;;;5112479;28;20039;-75
2022/09/07 02:29:06;;;;;;;0.38;0.38;;;17.50;77.20;;;;;;5112602;28;20047;-75
2022/09/07 02:31:32;;;;;;;0.30;0.30;;;17.50;77.30;;;;;;5094653;28;20481;-76
2022/09/07 02:34:00;;;;;;;0.25;0.25;;;17.60;77.40;;;;;;5112752;28;20088;-75
2022/09/07 02:36:31;;;;;;;0.20;0.20;;;17.60;77.40;;;;;;5112872;28;20040;-75
2022/09/07 02:38:56;;;;;;;0.98;0.45;;;17.60;77.40;;;;;;5112339;28;20556;-75
2022/09/07 02:41:36;;;;;;;0.30;0.30;;;17.60;77.40;;;;;;5112925;28;20078;-76
2022/09/07 02:44:08;;;;;;;0.43;0.40;;;17.60;77.60;;;;;;5110469;28;20051;-75
2022/09/07 02:46:51;;;;;;;0.20;0.20;;;17.60;77.50;;;;;;5112397;28;20047;-76
2022/09/07 02:49:33;;;;;;;0.30;0.30;;;17.60;77.60;;;;;;5075322;28;20051;-75
2022/09/07 02:52:29;;;;;;;0.30;0.30;;;17.60;78.20;;;;;;5094758;28;20043;-75
2022/09/07 02:55:14;;;;;;;0.52;0.40;;;17.50;77.60;;;;;;5111402;28;20036;-76
2022/09/07 02:58:10;;;;;;;0.30;0.30;;;17.60;77.60;;;;;;5094466;28;20126;-75
2022/09/07 03:00:47;;;;;;;0.20;0.20;;;17.60;77.60;;;;;;5099071;28;20043;-75
2022/09/07 03:03:38;;;;;;;0.43;0.40;;;17.60;77.60;;;;;;5111518;28;20059;-75
2022/09/07 03:06:12;;;;;;;0.28;0.28;;;17.60;77.70;;;;;;5111962;28;20047;-75
2022/09/07 03:08:43;;;;;;;0.20;0.20;;;17.60;77.60;;;;;;5112025;28;20055;-75
2022/09/07 03:11:09;;;;;;;0.60;0.40;;;17.50;77.70;;;;;;5075525;28;20430;-76
2022/09/07 03:13:34;;;;;;;0.15;0.15;;;17.60;77.70;;;;;;5093947;28;20062;-75
2022/09/07 03:16:00;;;;;;;0.88;0.35;;;17.60;77.70;;;;;;5112310;28;20420;-75
2022/09/07 03:18:27;;;;;;;0.30;0.30;;;17.60;77.70;;;;;;5112272;28;20073;-75
2022/09/07 03:20:54;;;;;;;0.30;0.20;;;17.60;77.70;;;;;;5112481;28;20389;-75
2022/09/07 03:23:20;;;;;;;0.20;0.20;;;17.60;77.70;;;;;;5112274;28;20120;-75
2022/09/07 03:25:47;;;;;;;0.55;0.22;;;17.60;77.70;;;;;;5112003;28;20047;-76
2022/09/07 03:28:13;;;;;;;0.38;0.30;;;17.60;77.70;;;;;;5093858;28;20070;-75
2022/09/07 03:30:44;;;;;;;0.30;0.30;;;17.70;77.80;;;;;;5111948;28;20067;-75
2022/09/07 03:33:10;;;;;;;0.20;0.20;;;17.60;77.80;;;;;;5110220;28;20036;-75
2022/09/07 03:35:36;;;;;;;0.40;0.40;;;17.70;77.80;;;;;;5093643;28;20038;-75
2022/09/07 03:38:02;;;;;;;0.20;0.20;;;17.70;77.90;;;;;;5111852;28;20058;-75
2022/09/07 03:40:33;;;;;;;0.20;0.20;;;17.70;77.90;;;;;;5076926;28;20399;-75
2022/09/07 03:42:58;;;;;;;0.32;0.32;;;17.70;78.00;;;;;;5111538;28;20498;-75
2022/09/07 03:45:24;;;;;;;0.25;0.25;;;17.70;77.90;;;;;;5112299;28;20048;-75
2022/09/07 03:47:50;;;;;;;0.40;0.20;;;17.70;77.90;;;;;;5093428;28;20050;-75
2022/09/07 03:50:16;;;;;;;0.60;0.25;;;17.80;78.00;;;;;;5111980;28;20390;-75
2022/09/07 03:52:42;;;;;;;0.28;0.28;;;17.70;77.90;;;;;;5093466;28;20401;-75
2022/09/07 03:55:08;;;;;;;0.30;0.30;;;17.80;78.00;;;;;;5112778;28;20072;-75
2022/09/07 03:57:34;;;;;;;1.08;0.30;;;17.80;77.90;;;;;;5115026;28;20074;-75
2022/09/07 04:00:00;;;;;;;0.28;0.28;;;17.80;77.90;;;;;;5097096;28;20039;-75
2022/09/07 04:02:25;;;;;;;0.20;0.20;;;17.80;77.90;;;;;;5115418;28;20042;-75
2022/09/07 04:04:51;;;;;;;0.40;0.30;;;17.90;78.00;;;;;;5097101;28;20043;-75
2022/09/07 04:07:17;;;;;;;0.50;0.30;;;17.90;78.00;;;;;;5115713;28;20043;-75
2022/09/07 04:09:43;;;;;;;0.22;0.22;;;17.90;78.10;;;;;;5115901;28;20078;-75
2022/09/07 04:12:08;;;;;;;0.20;0.20;;;17.80;78.10;;;;;;5115327;28;20062;-75
2022/09/07 04:14:34;;;;;;;0.35;0.30;;;17.80;78.20;;;;;;5096856;28;20076;-75
2022/09/07 04:17:00;;;;;;;0.10;0.10;;;17.90;78.30;;;;;;5079965;28;20035;-75
2022/09/07 04:19:26;;;;;;;0.38;0.38;;;17.90;78.30;;;;;;5112849;28;20039;-76
2022/09/07 04:21:52;;;;;;;0.25;0.25;;;17.90;78.30;;;;;;5114811;28;20047;-76
2022/09/07 04:24:17;;;;;;;0.40;0.40;;;17.90;78.20;;;;;;5114994;28;20044;-75
2022/09/07 04:26:44;;;;;;;0.20;0.20;;;18.00;78.30;;;;;;5114896;28;20036;-76
2022/09/07 04:29:10;;;;;;;0.30;0.30;;;17.90;78.20;;;;;;5097041;28;20047;-75
2022/09/07 04:31:36;;;;;;;0.13;0.13;;;18.10;78.30;;;;;;5096616;28;20040;-76
2022/09/07 04:34:03;;;;;;;0.30;0.30;;;18.00;78.30;;;;;;5114983;28;20129;-75
2022/09/07 04:36:29;;;;;;;0.40;0.40;;;18.00;78.40;;;;;;5113570;28;20043;-75
2022/09/07 04:38:58;;;;;;;0.57;0.50;;;17.90;78.50;;;;;;5115061;28;20040;-76
2022/09/07 04:41:26;;;;;;;0.30;0.30;;;17.90;78.70;;;;;;5096913;28;20036;-75
2022/09/07 04:43:54;;;;;;;0.50;0.50;;;17.90;78.90;;;;;;5096417;28;20481;-76
2022/09/07 04:46:24;;;;;;;0.65;0.45;;;17.90;78.90;;;;;;5096345;28;20042;-75
2022/09/07 04:48:53;;;;;;;0.30;0.30;;;17.80;79.00;;;;;;5096285;28;20458;-75
2022/09/07 04:51:21;;;;;;;0.28;0.28;;;17.80;79.10;;;;;;5114929;28;20035;-76
2022/09/07 04:53:48;;;;;;;0.40;0.40;;;17.80;79.10;;;;;;5114821;28;20089;-75
2022/09/07 04:56:15;;;;;;;0.30;0.30;;;17.80;79.20;;;;;;5114610;28;20106;-75
2022/09/07 04:58:41;;;;;;;0.30;0.30;;;17.90;79.20;;;;;;5114043;28;20058;-75
2022/09/07 05:01:07;;;;;;;0.40;0.40;;;17.80;79.00;;;;;;5114602;28;20043;-75
2022/09/07 05:03:36;;;;;;;0.32;0.32;;;17.90;79.10;;;;;;5114461;28;20088;-75
2022/09/07 05:06:03;;;;;;;0.57;0.52;;;17.80;79.10;;;;;;5094555;28;20127;-75
2022/09/07 05:08:30;;;;;;;0.40;0.40;;;17.80;79.70;;;;;;5114236;28;20059;-76
2022/09/07 05:10:56;;;;;;;0.50;0.50;;;17.80;79.20;;;;;;5114766;28;20097;-75
2022/09/07 05:13:24;;;;;;;0.40;0.40;;;17.80;79.20;;;;;;5096229;28;20526;-75
2022/09/07 05:15:50;;;;;;;0.55;0.50;;;17.80;79.30;;;;;;5114286;28;20036;-76
2022/09/07 05:18:15;;;;;;;0.40;0.40;;;17.80;79.30;;;;;;5096685;28;20515;-77
2022/09/07 05:20:41;;;;;;;0.40;0.40;;;17.80;79.30;;;;;;5060421;28;20046;-77
2022/09/07 05:23:07;;;;;;;1.42;0.43;;;17.80;79.40;;;;;;5079133;28;20046;-76
2022/09/07 05:25:34;;;;;;;0.80;0.60;;;17.80;79.40;;;;;;5061947;28;20043;-76
2022/09/07 05:28:00;;;;;;;0.60;0.50;;;17.80;79.50;;;;;;5078717;28;20105;-76
2022/09/07 05:30:28;;;;;;;0.40;0.40;;;17.80;79.50;;;;;;5079002;28;20044;-75
2022/09/07 05:32:55;;;;;;;0.40;0.40;;;17.70;79.50;;;;;;5096020;28;20561;-76
2022/09/07 05:35:20;;;;;;;1.00;0.68;;;17.80;79.60;;;;;;5095590;28;20032;-75
2022/09/07 05:37:49;;;;;;;0.60;0.60;;;17.80;79.60;;;;;;5095450;28;20481;-76
2022/09/07 05:40:15;;;;;;;0.57;0.57;;;17.80;79.70;;;;;;5113421;28;20489;-76
2022/09/07 05:42:41;;;;;;;0.70;0.70;;;17.70;79.70;;;;;;5114022;28;20093;-76
2022/09/07 05:45:07;;;;;;;1.73;0.90;;;17.70;79.70;;;;;;5113608;28;20036;-75
2022/09/07 05:47:36;;;;;;;1.73;0.88;;;17.80;79.80;;;;;;5095310;28;20047;-76
2022/09/07 05:50:04;;;;;;;1.15;1.05;;;17.80;79.80;;;;;;5095740;28;20043;-76
2022/09/07 05:52:29;;;;;;;0.90;0.80;;;17.80;79.90;;;;;;5114173;28;20148;-75
2022/09/07 05:54:55;;;;;;;1.55;0.95;;;17.80;79.90;;;;;;5113926;28;20066;-75
2022/09/07 05:57:21;;;;;;;0.88;0.85;;;17.80;79.90;;;;;;5111663;28;20065;-75
2022/09/07 05:59:46;;;;;;;1.40;1.20;;;17.80;79.80;;;;;;5113578;28;20032;-75
2022/09/07 06:02:14;;;;;;;0.63;0.63;;;17.80;79.80;;;;;;5113971;28;20542;-75
2022/09/07 06:04:40;;;;;;;1.38;1.02;;;17.90;79.80;;;;;;5113960;28;20110;-75
2022/09/07 06:07:07;;;;;;;1.60;1.23;;;17.90;79.80;;;;;;5113460;28;20034;-76
2022/09/07 06:09:33;;;;;;;1.58;1.00;;;17.90;79.80;;;;;;5113483;28;20514;-75
2022/09/07 06:11:59;;;;;;;1.60;1.13;;;17.80;79.70;;;;;;5113216;28;20377;-75
2022/09/07 06:14:24;;;;;;;2.40;1.20;;;17.90;79.80;;;;;;5113199;28;20119;-76
2022/09/07 06:16:50;;;;;;;1.90;1.35;;;17.90;79.80;;;;;;5113661;28;20059;-75
2022/09/07 06:19:16;;;;;;;0.95;0.93;;;18.00;79.80;;;;;;5112614;28;20043;-75
2022/09/07 06:21:41;;;;;;;1.20;1.00;;;17.90;79.80;;;;;;5094790;28;20035;-75
2022/09/07 06:24:08;;;;;;;1.50;1.30;;;18.00;79.90;;;;;;5112779;28;20098;-75
2022/09/07 06:26:33;;;;;;;2.03;1.20;;;18.00;79.80;;;;;;5112841;28;20067;-78
2022/09/07 06:29:01;;;;;;;1.40;1.00;;;17.90;79.80;;;;;;5112933;28;20083;-77
2022/09/07 06:31:27;;;;;;;1.50;1.17;;;18.00;80.00;;;;;;5112991;28;20044;-77
2022/09/07 06:33:54;;;;;;;0.88;0.77;;;18.00;80.00;;;;;;5112846;28;20031;-77
2022/09/07 06:36:24;;;;;;;1.95;1.10;;;18.00;80.00;;;;;;5112663;28;20047;-76
2022/09/07 06:38:50;;;;;;;1.85;1.25;;;18.00;79.90;;;;;;5112665;28;20059;-78
2022/09/07 06:41:20;;;;;;;1.50;1.20;;;18.00;80.00;;;;;;5113350;28;20489;-77
2022/09/07 06:43:47;;;;;;;2.13;1.42;;;18.00;80.00;;;;;;5095445;28;20042;-77
2022/09/07 06:46:23;;;;;;;1.90;1.38;;;17.90;80.00;;;;;;5113097;28;20040;-77
2022/09/07 06:48:58;;;;;;;2.00;1.50;;;18.00;80.10;;;;;;5094494;28;20120;-75
2022/09/07 06:51:57;;;;;;;2.67;1.50;;;18.00;80.20;;;;;;5112279;28;20046;-76
2022/09/07 06:54:26;;;;;;;2.20;1.55;;;18.00;80.20;;;;;;5094611;28;20050;-77
2022/09/07 06:57:12;;;;;;;1.77;1.30;;;17.90;80.10;;;;;;5112580;28;20629;-78
2022/09/07 07:00:10;;;;;;;2.22;1.48;;;18.00;80.20;;;;;;5094513;28;20051;-78
2022/09/07 07:02:35;;;;;;;1.70;1.23;;;18.00;80.20;;;;;;5008971;28;20053;-76
2022/09/07 07:08:39;;;;;;;1.30;1.20;;;18.00;80.30;;;;;;4886455;29;20049;-77
2022/09/07 07:11:08;;;;;;;1.60;0.98;;;18.00;80.20;;;;;;4877012;29;20041;-77
2022/09/07 07:14:05;;;;;;;2.88;1.38;;;18.00;81.00;;;;;;4877950;29;20052;-76
2022/09/07 07:17:14;;;;;;;2.28;1.23;;;18.00;80.30;;;;;;4809822;29;20047;-79
2022/09/07 07:23:16;;;;;;;1.90;1.40;;;18.10;80.10;;;;;;4765780;30;20585;-78
2022/09/07 07:26:14;;;;;;;1.67;1.27;;;18.10;79.90;;;;;;4735847;30;20099;-79
2022/09/07 07:28:47;;;;;;;1.98;1.58;;;18.10;80.10;;;;;;4748382;30;20512;-77
2022/09/07 07:31:20;;;;;;;1.90;1.50;;;18.30;80.20;;;;;;4735983;30;20553;-76
2022/09/07 07:37:22;;;;;;;1.20;1.10;;;18.20;80.10;;;;;;4757748;30;20046;-77
2022/09/07 07:39:50;;;;;;;2.10;1.42;;;18.20;80.00;;;;;;4799912;29;20042;-77
2022/09/07 07:42:34;;;;;;;1.08;1.00;;;18.20;80.10;;;;;;4842279;29;20044;-78
2022/09/07 07:45:04;;;;;;;1.73;1.48;;;18.30;80.10;;;;;;4865011;29;20141;-78
2022/09/07 07:47:30;;;;;;;3.03;1.80;;;18.20;80.00;;;;;;4874962;29;20040;-77
2022/09/07 07:49:56;;;;;;;2.75;1.88;;;18.30;80.20;;;;;;4888672;29;20040;-78
2022/09/07 07:52:33;;;;;;;3.40;2.03;;;18.30;80.10;;;;;;4889294;28;20131;-78
2022/09/07 07:58:42;;;;;;;1.80;1.40;;;18.30;80.20;;;;;;4989541;28;20081;-77
2022/09/07 08:01:11;;;;;;;1.33;1.10;;;18.40;80.20;;;;;;4976530;28;20136;-74
2022/09/07 08:04:06;;;;;;;1.63;1.45;;;18.50;80.00;;;;;;4992616;28;20566;-78
2022/09/07 08:06:54;;;;;;;1.85;1.38;;;18.60;79.80;;;;;;4965042;28;20513;-78
2022/09/07 08:09:20;;;;;;;3.17;2.08;;;18.50;79.60;;;;;;4979303;28;20073;-78
2022/09/07 08:12:01;;;;;;;3.00;1.75;;;18.60;79.70;;;;;;4976841;28;20061;-77
2022/09/07 08:14:35;;;;;;;3.10;1.83;;;18.60;79.80;;;;;;4992641;28;20531;-77
2022/09/07 08:17:03;;;;;;;1.95;1.58;;;18.70;79.80;;;;;;4992818;28;20053;-77
2022/09/07 08:19:29;;;;;;;2.45;1.52;;;18.70;79.90;;;;;;4960268;28;20117;-76
2022/09/07 08:21:54;;;;;;;3.08;1.77;;;18.80;79.80;;;;;;4976444;28;20043;-75
2022/09/07 08:24:20;;;;;;;2.35;1.42;;;19.00;79.60;;;;;;4976521;28;20546;-76
2022/09/07 08:26:46;;;;;;;2.63;1.70;;;19.10;79.30;;;;;;4990421;28;20127;-76
2022/09/07 08:29:12;;;;;;;2.83;1.45;;;19.10;79.10;;;;;;5055701;28;20045;-76
2022/09/07 08:31:38;;;;;;;2.28;1.65;;;19.20;79.10;;;;;;5064122;28;20039;-77
2022/09/07 08:34:03;;;;;;;2.10;1.60;;;19.30;79.10;;;;;;5097074;28;20081;-77
2022/09/07 08:36:30;;;;;;;1.77;1.42;;;19.30;78.80;;;;;;5065628;28;20091;-78
2022/09/07 08:38:56;;;;;;;3.35;1.85;;;19.40;78.80;;;;;;5115351;28;20493;-77
2022/09/07 08:42:02;;;;;;;2.10;1.70;;;19.50;79.00;;;;;;5114511;28;20122;-74
2022/09/07 08:44:37;;;;;;;3.15;2.00;;;19.50;79.10;;;;;;5114530;28;20508;-75
2022/09/07 08:47:28;;;;;;;2.05;1.55;;;19.50;79.10;;;;;;5096217;28;20091;-74
2022/09/07 08:50:09;;;;;;;1.95;1.40;;;19.60;79.00;;;;;;5114607;28;20047;-75
2022/09/07 08:52:46;;;;;;;2.20;1.52;;;19.70;78.80;;;;;;5080801;28;20067;-75
2022/09/07 08:55:19;;;;;;;2.38;1.77;;;19.80;78.60;;;;;;5097347;28;20039;-76
2022/09/07 08:58:11;;;;;;;2.80;2.00;;;19.90;78.50;;;;;;5080110;28;20035;-76
2022/09/07 09:00:38;;;;;;;2.70;1.95;;;20.00;78.40;;;;;;5114018;28;20073;-76
2022/09/07 09:14:02;;;;;;;2.30;1.63;;;20.20;78.30;;;;;;4839500;29;20076;-77
2022/09/07 09:20:23;;;;;;;2.17;1.52;;;20.30;78.10;;;;;;4852880;29;20433;-76
2022/09/07 09:33:23;;;;;;;2.00;1.40;;;20.50;78.00;;;;;;4766281;30;20228;-77
2022/09/07 09:36:39;;;;;;;1.90;1.33;;;20.40;78.10;;;;;;4767558;30;20109;-77
2022/09/07 09:49:25;;;;;;;1.58;1.40;;;20.50;77.90;;;;;;4756197;30;20053;-77
2022/09/07 09:51:52;;;;;;;1.73;1.52;;;20.60;77.70;;;;;;4732025;30;20415;-77
2022/09/07 09:54:42;;;;;;;3.03;1.92;;;20.70;77.70;;;;;;4760666;30;20075;-77
2022/09/07 09:57:19;;;;;;;3.03;2.05;;;20.70;77.60;;;;;;4766360;30;20050;-75
2022/09/07 10:00:07;;;;;;;2.78;1.80;;;20.70;77.50;;;;;;4767733;30;20055;-76
2022/09/07 10:03:24;;;;;;;2.70;1.95;;;20.80;77.50;;;;;;4787947;29;20087;-76
2022/09/07 10:05:53;;;;;;;1.88;1.55;;;20.80;77.30;;;;;;4835867;29;20052;-76
2022/09/07 10:19:17;;;;;;;1.95;1.58;;;21.00;76.90;;;;;;4810364;29;20427;-77
2022/09/07 10:21:44;;;;;;;2.67;1.80;;;21.10;76.60;;;;;;4775530;29;20088;-76
2022/09/07 10:24:22;;;;;;;3.45;2.08;;;21.10;76.40;;;;;;4813613;29;20045;-77
2022/09/07 10:26:47;;;;;;;2.72;1.73;;;21.20;76.40;;;;;;4838066;29;20056;-77
2022/09/07 10:29:26;;;;;;;2.05;1.70;;;21.20;76.20;;;;;;4839459;29;20050;-76
2022/09/07 10:32:12;;;;;;;2.22;1.65;;;21.30;76.10;;;;;;4839311;29;20090;-76
2022/09/07 10:34:59;;;;;;;2.58;1.90;;;21.40;76.60;;;;;;4839858;29;20068;-76
2022/09/07 10:37:44;;;;;;;2.55;1.77;;;21.40;75.60;;;;;;4839155;29;20041;-76
2022/09/07 10:40:28;;;;;;;1.90;1.45;;;21.50;75.50;;;;;;4839159;29;20073;-76
2022/09/07 10:43:19;;;;;;;1.90;1.60;;;21.60;75.30;;;;;;4854370;29;20137;-76
2022/09/07 10:50:03;;;;;;;1.63;1.33;;;21.80;74.90;;;;;;4988965;28;20428;-76
2022/09/07 10:53:04;;;;;;;1.95;1.40;;;22.00;74.70;;;;;;5029884;28;20047;-74
2022/09/07 10:55:36;;;;;;;2.88;1.48;;;22.00;74.40;;;;;;5091130;28;20048;-73
2022/09/07 10:58:35;;;;;;;1.10;1.00;;;22.10;74.30;;;;;;5057931;28;20048;-74
2022/09/07 11:04:57;;;;;;;1.48;1.00;;;22.10;74.20;;;;;;5112934;28;20971;-73
2022/09/07 11:07:49;;;;;;;1.13;1.02;;;22.10;74.10;;;;;;5099305;28;20586;-74
2022/09/07 11:10:40;;;;;;;2.10;1.10;;;22.20;73.90;;;;;;5101078;28;20048;-73
2022/09/07 11:13:21;;;;;;;;;;;22.40;73.60;;;;;;5115436;28;20031;-74
2022/09/07 11:15:58;;;;;;;0.98;0.88;;;22.50;73.20;;;;;;5074415;28;19912;-74
2022/09/07 11:21:59;;;;;;;1.23;0.95;;;22.50;73.10;;;;;;5020742;28;20041;-75
2022/09/07 11:25:07;;;;;;;2.05;1.20;;;22.50;73.30;;;;;;4992141;28;20101;-75
2022/09/07 11:28:09;;;;;;;0.98;0.85;;;22.60;73.10;;;;;;4935673;28;20226;-75
2022/09/07 11:30:42;;;;;;;2.20;0.85;;;22.80;72.70;;;;;;4901299;29;20048;-75
2022/09/07 11:33:35;;;;;;;0.60;0.60;;;22.90;72.40;;;;;;4896606;29;20368;-75
2022/09/07 11:36:14;;;;;;;0.65;0.60;;;22.80;72.40;;;;;;4882548;29;20048;-75
2022/09/07 11:39:34;;;;;;;1.02;0.80;;;22.80;72.30;;;;;;4873325;29;20041;-74
2022/09/07 11:42:19;;;;;;;0.93;0.82;;;22.80;72.40;;;;;;4877896;29;20048;-75
2022/09/07 11:48:43;;;;;;;1.00;0.80;;;23.00;72.30;;;;;;4843166;29;20061;-75
2022/09/07 12:02:41;;;;;;;0.70;0.70;;;23.50;71.00;;;;;;4806115;29;20066;-75
2022/09/07 12:08:55;;;;;;;0.60;0.60;;;23.50;71.20;;;;;;4905102;29;20048;-74
2022/09/07 12:12:01;;;;;;;3.35;0.70;;;23.60;71.00;;;;;;4896301;29;20044;-74
2022/09/07 12:18:30;;;;;;;0.55;0.55;;;23.50;71.00;;;;;;4803745;29;20058;-74
2022/09/07 12:21:45;;;;;;;1.98;0.90;;;23.60;71.00;;;;;;4840099;29;20132;-75
2022/09/07 12:24:50;;;;;;;1.02;0.60;;;23.80;70.40;;;;;;4807698;29;20104;-73
2022/09/07 12:42:56;;;;;;;0.40;0.40;;;23.90;69.80;;;;;;4789087;29;20076;-75
2022/09/07 12:49:23;;;;;;;2.13;0.63;;;24.20;69.00;;;;;;4782581;29;20047;-75
2022/09/07 12:52:19;;;;;;;1.38;0.70;;;24.40;68.50;;;;;;4802148;29;20051;-75
2022/09/07 12:55:14;;;;;;;1.38;0.80;;;24.40;68.30;;;;;;4798288;29;20530;-76
2022/09/07 12:58:08;;;;;;;1.75;0.77;;;24.20;68.30;;;;;;4828647;29;20046;-75
2022/09/07 13:01:04;;;;;;;1.67;0.77;;;24.10;68.40;;;;;;4853731;29;20187;-74
2022/09/07 13:03:54;;;;;;;1.02;0.63;;;24.10;68.50;;;;;;4847259;29;20125;-75
2022/09/07 13:06:54;;;;;;;1.98;0.98;;;24.20;68.30;;;;;;4843915;29;20102;-74
2022/09/07 13:13:39;;;;;;;1.02;0.50;;;24.20;68.10;;;;;;4884787;29;20138;-75
2022/09/07 13:16:27;;;;;;;0.65;0.57;;;24.30;67.90;;;;;;4951390;28;20138;-74
2022/09/07 13:18:53;;;;;;;0.40;0.40;;;24.30;67.60;;;;;;4956356;28;20077;-74
2022/09/07 13:21:38;;;;;;;0.65;0.50;;;24.40;67.40;;;;;;5015677;28;20046;-74
2022/09/07 13:24:36;;;;;;;0.65;0.50;;;24.40;67.20;;;;;;5012436;28;20048;-74
2022/09/07 13:46:10;;;;;;;0.50;0.50;;;24.70;66.30;;;;;;4793360;29;20067;-77
2022/09/07 14:21:03;;;;;;;0.43;0.43;;;24.70;65.10;;;;;;4811634;29;20058;-76
2022/09/07 14:24:02;;;;;;;1.13;0.45;;;24.70;65.30;;;;;;4754687;30;20047;-73
2022/09/07 14:44:51;;;;;;;0.75;0.40;;;24.70;65.10;;;;;;4713688;30;20072;-75
2022/09/07 14:54:29;;;;;;;1.70;0.63;;;25.00;64.00;;;;;;4703809;30;20059;-73
2022/09/07 14:57:19;;;;;;;1.85;0.50;;;24.90;63.50;;;;;;4731115;30;20044;-72
2022/09/07 14:59:47;;;;;;;0.55;0.55;;;24.70;63.50;;;;;;4731430;30;20041;-75
2022/09/07 15:02:30;;;;;;;0.40;0.40;;;24.80;63.80;;;;;;4730950;30;20049;-75
2022/09/07 15:05:16;;;;;;;0.63;0.50;;;24.70;63.80;;;;;;4731735;30;20051;-75
2022/09/07 15:07:58;;;;;;;0.50;0.40;;;24.60;63.70;;;;;;4731697;30;20048;-74
2022/09/07 15:10:29;;;;;;;0.63;0.47;;;24.60;63.70;;;;;;4742819;30;20044;-73
2022/09/07 15:12:57;;;;;;;0.38;0.30;;;24.60;63.70;;;;;;4783931;29;20055;-74
2022/09/07 15:15:28;;;;;;;1.17;0.30;;;24.60;63.70;;;;;;4814834;29;20052;-73
2022/09/07 15:17:56;;;;;;;0.65;0.50;;;24.50;63.70;;;;;;4850198;29;20412;-74
2022/09/07 15:20:39;;;;;;;0.40;0.40;;;24.60;63.70;;;;;;4878430;29;20076;-73
2022/09/07 15:23:15;;;;;;;1.00;0.55;;;24.60;63.50;;;;;;4896274;29;20044;-74
2022/09/07 15:25:43;;;;;;;1.92;0.50;;;24.60;63.20;;;;;;4880556;29;20052;-74
2022/09/07 15:28:22;;;;;;;0.65;0.50;;;24.70;63.00;;;;;;4983215;28;20050;-74
2022/09/07 15:30:47;;;;;;;0.30;0.30;;;24.60;62.70;;;;;;5043120;28;20035;-74
2022/09/07 15:33:13;;;;;;;0.85;0.43;;;24.80;62.70;;;;;;5092925;28;20032;-74
2022/09/07 15:35:39;;;;;;;0.40;0.40;;;24.70;62.50;;;;;;5093010;28;20052;-74
2022/09/07 15:38:04;;;;;;;0.30;0.30;;;24.70;62.40;;;;;;5078850;28;20033;-74
2022/09/07 15:40:50;;;;;;;0.40;0.40;;;24.70;62.30;;;;;;5093205;28;20040;-74
2022/09/07 15:43:16;;;;;;;1.20;0.43;;;24.70;62.10;;;;;;5091896;28;20040;-74
2022/09/07 15:45:45;;;;;;;0.43;0.40;;;24.80;62.10;;;;;;5091658;28;20541;-75
2022/09/07 15:48:13;;;;;;;0.57;0.40;;;24.70;61.90;;;;;;5090344;28;20051;-75
2022/09/07 15:50:39;;;;;;;0.75;0.38;;;24.80;61.80;;;;;;5090847;28;20044;-74
2022/09/07 15:53:09;;;;;;;0.40;0.40;;;24.60;61.70;;;;;;5094405;28;20085;-76
2022/09/07 16:07:02;;;;;;;0.95;0.47;;;24.60;61.70;;;;;;4960989;28;20045;-76
2022/09/07 16:09:41;;;;;;;0.38;0.30;;;24.70;61.60;;;;;;4925615;29;20048;-77
2022/09/07 16:12:36;;;;;;;0.28;0.28;;;24.60;61.40;;;;;;4880331;29;20034;-76
2022/09/07 16:19:34;;;;;;;0.30;0.30;;;24.60;61.40;;;;;;4823383;29;20103;-76
2022/09/07 16:22:47;;;;;;;0.67;0.37;;;24.40;61.60;;;;;;4804903;29;20114;-76
2022/09/07 16:25:13;;;;;;;0.32;0.25;;;24.40;61.80;;;;;;4730041;30;20548;-76
2022/09/07 16:27:40;;;;;;;0.30;0.30;;;24.10;61.60;;;;;;4734361;30;20099;-75
2022/09/07 16:30:06;;;;;;;0.25;0.20;;;24.20;61.80;;;;;;4733746;30;20052;-75
2022/09/07 16:32:32;;;;;;;0.50;0.25;;;24.20;61.60;;;;;;4730362;30;20106;-75
2022/09/07 16:34:58;;;;;;;0.50;0.30;;;24.20;61.50;;;;;;4716214;30;20140;-74
2022/09/07 16:37:23;;;;;;;0.20;0.20;;;24.10;61.50;;;;;;4729528;30;20053;-74
2022/09/07 16:39:50;;;;;;;0.20;0.20;;;24.10;62.20;;;;;;4758282;30;20124;-74
2022/09/07 16:42:16;;;;;;;0.75;0.22;;;24.00;61.70;;;;;;4810991;29;20041;-75
2022/09/07 16:44:42;;;;;;;0.85;0.32;;;24.00;61.80;;;;;;4878759;29;20045;-74
2022/09/07 16:47:08;;;;;;;0.30;0.30;;;23.90;61.80;;;;;;4916964;29;20039;-74
2022/09/07 16:49:34;;;;;;;0.60;0.40;;;23.80;61.80;;;;;;4942720;29;20067;-75
2022/09/07 16:51:59;;;;;;;0.20;0.20;;;23.90;61.80;;;;;;5003805;28;20036;-74
2022/09/07 16:54:25;;;;;;;0.45;0.30;;;23.80;61.70;;;;;;5055118;28;20548;-74